Flight Track Log - Related Links

Times and Time Zones

All times are in EST time to prevent confusion due to time zone crossing. See the UPS9851 flight status page for this flight to view local times or setup timezone preferences in your user account.

Time Position Orientation Groundspeed Altitude Reporting Facility
EST Latitude Longitude Course Direction KTS MPH feet Rate Location/Type
Wed 09:48:54 PM 27.9167 -82.6833 360° North 175 201 500  Level Tampa TRACON
Wed 09:49:42 PM 27.9500 -82.6833 360° North 185 213 2,600 1,889 Climbing Tampa TRACON
Wed 09:50:42 PM 28.0000 -82.6500 30° Northeast 261 300 3,900 667 Climbing Tampa TRACON
Wed 09:51:48 PM 28.1000 -82.6667 352° North 291 335 4,000 1,956 Climbing Tampa TRACON
Wed 09:53:43 PM 28.2458 -82.6994 349° North 291 335 9,800 2,743 Climbing Jacksonville Center
Wed 09:54:43 PM 28.3397 -82.7156 351° North 309 356 12,000 2,700 Climbing Jacksonville Center
Wed 09:55:43 PM 28.4461 -82.7319 352° North 351 404 15,200 2,900 Climbing Jacksonville Center
Wed 09:56:43 PM 28.5547 -82.7531 350° North 379 436 17,800 2,500 Climbing Jacksonville Center
Wed 09:57:43 PM 28.6633 -82.7647 355° North 393 452 20,200 2,000 Climbing Jacksonville Center
Wed 09:58:43 PM 28.7633 -82.7931 346° North 393 452 21,800 1,586 Climbing Jacksonville Center
Wed 10:04:05 PM 29.4278 -83.0422 347° North 491 565 30,300 1,583 Climbing FlightAware ADS-B
Wed 10:04:43 PM 29.5044 -83.0644 347° North 472 543 31,300 1,959 Climbing Jacksonville Center
Wed 10:05:43 PM 29.6381 -83.1006 347° North 500 575 33,500 2,300 Climbing Jacksonville Center
Wed 10:06:43 PM 29.7736 -83.1367 347° North 506 582 35,900 885 Climbing Jacksonville Center
Wed 10:12:57 PM 30.6008 -83.3539 347° North 487 560 39,900 553 Climbing FlightAware ADS-B (KONZ)
Wed 10:13:57 PM 30.7196 -83.3841 347° North 491 565 39,900  Level FlightAware ADS-B (KONZ)
Wed 10:15:57 PM 30.9810 -83.4579 347° North 492 566 39,900  Level FlightAware ADS-B (KONZ)
Wed 10:17:10 PM 31.1580 -83.5065 347° North 489 563 39,900  Level FlightAware ADS-B (KONZ)
Wed 10:17:47 PM 31.2393 -83.5290 347° North 487 560 39,900  Level FlightAware ADS-B (KONZ)
Wed 10:18:46 PM 31.3594 -83.5622 347° North 486 559 39,900  Level Atlanta Center
Wed 10:19:46 PM 31.4892 -83.6006 346° North 486 559 39,900  Level Atlanta Center
Wed 10:20:46 PM 31.6228 -83.6389 346° North 480 552 39,900  Level Atlanta Center
Wed 10:21:46 PM 31.7378 -83.6678 348° North 480 552 39,900  Level Atlanta Center
Wed 10:22:46 PM 31.8881 -83.7111 346° North 487 560 39,900  Level Atlanta Center
Wed 10:23:46 PM 32.0072 -83.7450 346° North 494 568 39,900  Level Atlanta Center
Wed 10:24:46 PM 32.1408 -83.7836 346° North 488 562 39,900  Level Atlanta Center
Wed 10:25:46 PM 32.2725 -83.8203 347° North 488 562 39,900  Level Atlanta Center
Wed 10:26:46 PM 32.4019 -83.8567 347° North 482 555 39,900  Level Atlanta Center
Wed 10:27:46 PM 32.5417 -83.8983 346° North 475 547 39,900  Level Atlanta Center
Wed 10:28:46 PM 32.6692 -83.9328 347° North 475 547 39,900  Level Atlanta Center
Wed 10:29:46 PM 32.7986 -83.9672 347° North 475 547 39,900  Level Atlanta Center
Wed 10:30:46 PM 32.9258 -84.0042 346° North 470 541 39,900  Level Atlanta Center
Wed 10:31:46 PM 33.0533 -84.0439 345° North 470 541 39,900  Level Atlanta Center
Wed 10:32:46 PM 33.1806 -84.0836 345° North 470 541 39,900  Level Atlanta Center
Wed 10:33:46 PM 33.3078 -84.1183 347° North 464 534 39,900  Level Atlanta Center
Wed 10:34:46 PM 33.4353 -84.1533 347° North 470 541 39,900  Level Atlanta Center
Wed 10:35:46 PM 33.5478 -84.1858 346° North 470 541 39,900  Level Atlanta Center
Wed 10:36:46 PM 33.6897 -84.2236 348° North 470 541 39,900  Level Atlanta Center
Wed 10:37:46 PM 33.8128 -84.2614 346° North 470 541 39,900  Level Atlanta Center
Wed 10:38:46 PM 33.9400 -84.2967 347° North 470 541 39,900  Level Atlanta Center
Wed 10:39:46 PM 34.0653 -84.3322 347° North 466 536 39,900  Level Atlanta Center
Wed 10:40:46 PM 34.1883 -84.3628 348° North 478 550 39,900  Level Atlanta Center
Wed 10:41:46 PM 34.3114 -84.4008 346° North 465 535 39,900  Level Atlanta Center
Wed 10:42:46 PM 34.4386 -84.4392 346° North 465 535 39,900  Level Atlanta Center
Wed 10:48:40 PM 34.4588 -84.4462 348° North 470 541 39,900  Level FlightAware ADS-B (KMDQ)
Wed 10:49:46 PM 35.3389 -84.6931 348° North 471 542 39,900  Level Atlanta Center
Wed 10:50:46 PM 35.4725 -84.7069 355° North 471 542 39,900  Level Atlanta Center
Wed 10:51:46 PM 35.6036 -84.7233 354° North 471 542 39,900 -1,504 Level Atlanta Center
Wed 10:57:25 PM 36.2943 -84.7972 355° North 470 541 29,900 -1,486 Descending FlightAware ADS-B
Wed 10:58:46 PM 36.5115 -84.8226 355° North 467 537 29,500 -643 Descending FlightAware ADS-B
Wed 10:59:45 PM 36.6456 -84.8382 355° North 465 535 28,400 -1,122 Descending FlightAware ADS-B
Wed 11:00:49 PM 36.7838 -84.8543 355° North 462 532 27,200 -1,271 Descending FlightAware ADS-B
Wed 11:01:43 PM 36.8976 -84.8678 355° North 464 534 25,900 -1,576 Descending FlightAware ADS-B
Wed 11:02:47 PM 37.0348 -84.8842 355° North 468 539 24,100 -1,820 Descending FlightAware ADS-B
Wed 11:03:45 PM 37.1407 -84.8966 355° North 442 509 22,200 -2,323 Descending FlightAware ADS-B
Wed 11:04:51 PM 37.2918 -84.9147 355° North 418 481 19,300 -2,786 Descending FlightAware ADS-B
Wed 11:06:05 PM 37.4258 -84.9307 355° North 383 441 15,700 -2,826 Descending FlightAware ADS-B
Wed 11:06:52 PM 37.4833 -84.9377 354° North 367 422 13,600 -1,956 Descending FlightAware ADS-B
Wed 11:09:06 PM 37.6980 -85.0308 311° West 299 344 9,800 -1,485 Descending FlightAware ADS-B
Wed 11:10:06 PM 37.7503 -85.1032 313° West 271 312 8,800 -1,041 Descending FlightAware ADS-B
Wed 11:11:07 PM 37.7875 -85.1789 270° West 272 313 7,700 -828 Descending FlightAware ADS-B
Wed 11:12:02 PM 37.7863 -85.2667 269° West 264 304 7,200 -1,078 Descending FlightAware ADS-B
Wed 11:13:15 PM 37.7852 -85.3844 269° West 268 308 5,400 -1,292 Descending FlightAware ADS-B
Wed 11:14:26 PM 37.7852 -85.4859 270° West 231 266 4,100 -767 Descending FlightAware ADS-B
Wed 11:15:28 PM 37.7819 -85.5733 286° West 232 267 3,700 -253 Descending FlightAware ADS-B
Wed 11:16:01 PM 37.8131 -85.5987 324° Northwest 229 264 3,700  Level FlightAware ADS-B (KIXA)
Wed 11:16:27 PM 37.8296 -85.6199 334° Northwest 229 264 3,700  Level FlightAware ADS-B
Wed 11:17:23 PM 37.8716 -85.6369 346° North 225 259 3,700  Level FlightAware ADS-B (KIXA)
Wed 11:18:28 PM 37.9512 -85.6634 345° North 225 259 3,700 -219 Level FlightAware ADS-B
Wed 11:19:40 PM 38.0280 -85.6772 345° North 212 244 3,200 -786 Descending FlightAware ADS-B
Wed 11:20:53 PM 38.0860 -85.7095 345° North 167 192 1,800 -1,132 Descending FlightAware ADS-B
Wed 11:21:26 PM 38.1078 -85.7171 345° North 123 142 1,200 -506 Descending FlightAware ADS-B
Wed 11:22:16 PM 38.1333 -85.7167 345° North 115 132 1,100 -120 Descending Louisville TRACON
Wed 11:24:00 PM 38.1741 -85.7365 208° Southwest  Level Estimated

Login

Don't have an account? Register now (free) for customized features, flight alerts, and more!